createdAt,value
2023-03-16T00:00:39.483Z,12.50
2023-03-16T00:01:39.448Z,13.10
2023-03-16T00:02:39.461Z,13.00
2023-03-16T00:03:39.872Z,14.40
2023-03-16T00:04:39.414Z,16.60
2023-03-16T00:05:39.443Z,14.70
2023-03-16T00:06:39.401Z,16.80
2023-03-16T00:07:39.395Z,15.30
2023-03-16T00:08:39.380Z,15.20
2023-03-16T00:09:39.421Z,14.60
2023-03-16T00:10:39.396Z,17.50
2023-03-16T00:11:39.386Z,19.50
2023-03-16T00:12:39.387Z,16.50
2023-03-16T00:13:39.458Z,16.60
2023-03-16T00:14:39.369Z,16.10
2023-03-16T00:15:39.343Z,16.20
2023-03-16T00:16:39.378Z,17.70
2023-03-16T00:17:39.338Z,17.90
2023-03-16T00:18:39.453Z,15.50
2023-03-16T00:19:39.329Z,18.60
2023-03-16T00:20:39.357Z,16.80
2023-03-16T00:21:39.358Z,16.30
2023-03-16T00:22:39.301Z,21.30
2023-03-16T00:23:39.350Z,17.50
2023-03-16T00:24:39.295Z,19.20
2023-03-16T00:25:39.301Z,15.90
2023-03-16T00:26:39.298Z,16.40
2023-03-16T00:27:39.285Z,16.60
2023-03-16T00:28:39.303Z,15.90
2023-03-16T00:29:39.296Z,15.70
2023-03-16T00:30:39.350Z,15.60
2023-03-16T00:31:39.308Z,16.80
2023-03-16T00:32:39.320Z,16.60
2023-03-16T00:33:39.244Z,16.60
2023-03-16T00:34:39.264Z,17.00
2023-03-16T00:35:39.285Z,17.70
2023-03-16T00:36:39.310Z,16.80
2023-03-16T00:37:39.456Z,19.90
2023-03-16T00:38:39.195Z,20.20
2023-03-16T00:39:39.219Z,16.90
2023-03-16T00:40:39.218Z,17.20
2023-03-16T00:41:39.196Z,17.60
2023-03-16T00:42:39.197Z,16.10
2023-03-16T00:43:39.192Z,17.60
2023-03-16T00:44:39.187Z,14.40
2023-03-16T00:45:39.234Z,13.80
2023-03-16T00:46:39.166Z,12.40
2023-03-16T00:47:39.186Z,12.70
2023-03-16T00:48:39.173Z,13.30
2023-03-16T00:49:39.145Z,12.70
2023-03-16T00:50:39.142Z,12.70
2023-03-16T00:51:39.186Z,13.20
2023-03-16T00:52:39.184Z,12.90
2023-03-16T00:53:39.138Z,16.30
2023-03-16T00:54:39.118Z,12.50
2023-03-16T00:55:39.121Z,14.30
2023-03-16T00:56:39.116Z,12.70
2023-03-16T00:57:39.130Z,13.80
2023-03-16T00:58:39.135Z,13.10
2023-03-16T00:59:39.094Z,11.70
2023-03-16T01:00:39.092Z,11.10
2023-03-16T01:01:39.167Z,13.80
2023-03-16T01:02:39.163Z,13.20
2023-03-16T01:03:39.103Z,15.00
2023-03-16T01:04:39.122Z,13.40
2023-03-16T01:05:39.084Z,16.10
2023-03-16T01:06:39.943Z,20.60
2023-03-16T01:07:40.079Z,20.40
2023-03-16T01:08:39.086Z,28.80
2023-03-16T01:09:39.047Z,35.10
2023-03-16T01:10:39.029Z,26.10
2023-03-16T01:11:39.021Z,29.40
2023-03-16T01:12:39.071Z,25.10
2023-03-16T01:13:39.025Z,23.20
2023-03-16T01:14:38.991Z,23.40
2023-03-16T01:15:39.028Z,28.80
2023-03-16T01:16:39.084Z,28.70
2023-03-16T01:17:39.028Z,27.90
2023-03-16T01:18:38.981Z,30.30
2023-03-16T01:19:39.000Z,26.40
2023-03-16T01:20:38.970Z,17.10
2023-03-16T01:21:38.985Z,16.70
2023-03-16T01:22:38.980Z,15.90
2023-03-16T01:23:38.967Z,16.30
2023-03-16T01:24:38.937Z,17.60
2023-03-16T01:25:38.945Z,16.50
2023-03-16T01:26:38.940Z,15.80
2023-03-16T01:27:38.936Z,17.20
2023-03-16T01:28:38.962Z,14.90
2023-03-16T01:29:38.945Z,13.20
2023-03-16T01:30:38.963Z,13.90
2023-03-16T01:31:38.911Z,13.30
2023-03-16T01:32:38.929Z,13.90
2023-03-16T01:33:38.943Z,12.60
2023-03-16T01:34:38.891Z,12.50
2023-03-16T01:35:38.913Z,12.00
2023-03-16T01:36:38.926Z,12.90
2023-03-16T01:37:38.894Z,12.40
2023-03-16T01:38:38.880Z,12.40
2023-03-16T01:39:38.914Z,13.60
2023-03-16T01:40:38.865Z,19.90
2023-03-16T01:41:38.866Z,21.50
2023-03-16T01:42:38.837Z,25.20
2023-03-16T01:43:38.844Z,18.50
2023-03-16T01:44:38.880Z,15.30
2023-03-16T01:45:38.830Z,13.30
2023-03-16T01:46:38.858Z,13.20
2023-03-16T01:47:38.926Z,12.20
2023-03-16T01:48:38.877Z,11.30
2023-03-16T01:49:38.859Z,13.00
2023-03-16T01:50:38.836Z,12.50
2023-03-16T01:51:38.828Z,17.90
2023-03-16T01:52:38.809Z,19.00
2023-03-16T01:53:38.798Z,19.60
2023-03-16T01:54:38.799Z,21.10
2023-03-16T01:55:38.796Z,18.80
2023-03-16T01:56:38.776Z,17.70
2023-03-16T01:57:38.778Z,14.70
2023-03-16T01:58:38.752Z,14.40
2023-03-16T01:59:38.772Z,13.90
2023-03-16T02:00:38.752Z,12.30
2023-03-16T02:01:38.818Z,12.80
2023-03-16T02:02:38.726Z,16.40
2023-03-16T02:03:39.304Z,12.40
2023-03-16T02:04:38.786Z,13.10
2023-03-16T02:05:38.766Z,13.00
2023-03-16T02:06:38.879Z,11.50
2023-03-16T02:07:38.729Z,11.30
2023-03-16T02:08:38.729Z,11.80
2023-03-16T02:09:38.769Z,14.20
2023-03-16T02:10:38.691Z,14.70
2023-03-16T02:11:38.706Z,19.90
2023-03-16T02:12:38.679Z,21.20
2023-03-16T02:13:38.735Z,18.30
2023-03-16T02:14:38.678Z,22.60
2023-03-16T02:15:38.692Z,21.10
2023-03-16T02:16:38.674Z,24.60
2023-03-16T02:17:38.675Z,21.00
2023-03-16T02:18:38.677Z,22.50
2023-03-16T02:19:38.640Z,22.20
2023-03-16T02:20:38.715Z,28.10
2023-03-16T02:21:38.637Z,23.00
2023-03-16T02:22:38.686Z,22.20
2023-03-16T02:23:38.669Z,20.70
2023-03-16T02:24:38.671Z,23.80
2023-03-16T02:25:38.597Z,27.60
2023-03-16T02:26:38.747Z,26.90
2023-03-16T02:27:38.611Z,19.20
2023-03-16T02:28:38.613Z,20.70
2023-03-16T02:29:38.590Z,20.70
2023-03-16T02:30:38.571Z,17.80
2023-03-16T02:31:38.656Z,15.90
2023-03-16T02:32:38.602Z,16.50
2023-03-16T02:33:38.577Z,17.00
2023-03-16T02:34:39.607Z,18.70
2023-03-16T02:35:38.623Z,17.00
2023-03-16T02:36:38.566Z,20.70
2023-03-16T02:37:38.570Z,20.80
2023-03-16T02:38:38.565Z,21.80
2023-03-16T02:39:38.543Z,19.40
2023-03-16T02:40:38.538Z,18.50
2023-03-16T02:41:38.536Z,19.70
2023-03-16T02:42:38.526Z,18.20
2023-03-16T02:43:38.583Z,18.10
2023-03-16T02:44:38.539Z,16.70
2023-03-16T02:45:38.502Z,17.40
2023-03-16T02:46:38.591Z,15.20
2023-03-16T02:47:38.491Z,16.50
2023-03-16T02:48:38.526Z,15.80
2023-03-16T02:49:38.516Z,16.10
2023-03-16T02:50:38.487Z,15.60
2023-03-16T02:51:38.493Z,17.00
2023-03-16T02:52:38.498Z,16.90
2023-03-16T02:53:38.470Z,17.30
2023-03-16T02:54:38.496Z,17.70
2023-03-16T02:55:38.457Z,16.60
2023-03-16T02:56:38.479Z,15.50
2023-03-16T02:57:38.472Z,16.70
2023-03-16T02:58:38.490Z,17.20
2023-03-16T02:59:39.474Z,17.40
2023-03-16T03:00:39.429Z,19.40
2023-03-16T03:01:38.445Z,18.00
2023-03-16T03:02:38.438Z,26.50
2023-03-16T03:03:38.443Z,28.20
2023-03-16T03:04:38.439Z,29.60
2023-03-16T03:05:38.430Z,29.80
2023-03-16T03:06:38.416Z,27.30
2023-03-16T03:07:38.453Z,32.00
2023-03-16T03:08:38.380Z,26.80
2023-03-16T03:09:38.370Z,20.80
2023-03-16T03:10:39.309Z,20.70
2023-03-16T03:11:38.419Z,21.40
2023-03-16T03:12:38.365Z,27.60
2023-03-16T03:13:38.360Z,26.70
2023-03-16T03:14:38.461Z,26.90
2023-03-16T03:15:38.351Z,30.50
2023-03-16T03:16:38.440Z,38.00
2023-03-16T03:17:38.343Z,41.30
2023-03-16T03:18:38.402Z,39.90
2023-03-16T03:19:38.334Z,32.50
2023-03-16T03:20:38.350Z,28.70
2023-03-16T03:21:38.343Z,37.50
2023-03-16T03:22:38.316Z,34.70
2023-03-16T03:23:38.305Z,27.70
2023-03-16T03:24:38.286Z,29.90
2023-03-16T03:25:38.310Z,29.70
2023-03-16T03:26:38.366Z,29.60
2023-03-16T03:27:38.358Z,30.20
2023-03-16T03:28:38.276Z,31.20
2023-03-16T03:29:38.287Z,29.30
2023-03-16T03:30:38.300Z,29.50
2023-03-16T03:31:38.352Z,32.50
2023-03-16T03:32:38.331Z,36.30
2023-03-16T03:33:38.264Z,38.80
2023-03-16T03:34:38.281Z,36.80
2023-03-16T03:35:38.264Z,37.40
2023-03-16T03:36:38.225Z,33.00
2023-03-16T03:37:38.308Z,28.20
2023-03-16T03:38:38.221Z,31.40
2023-03-16T03:39:38.244Z,28.70
2023-03-16T03:40:38.217Z,35.20
2023-03-16T03:41:38.204Z,36.10
2023-03-16T03:42:38.271Z,27.40
2023-03-16T03:43:38.231Z,32.00
2023-03-16T03:44:38.193Z,43.30
2023-03-16T03:45:38.228Z,43.60
2023-03-16T03:46:38.325Z,38.10
2023-03-16T03:47:38.168Z,39.30
2023-03-16T03:48:38.192Z,32.80
2023-03-16T03:49:38.168Z,36.50
2023-03-16T03:50:38.176Z,40.50
2023-03-16T03:51:38.166Z,40.90
2023-03-16T03:52:38.145Z,35.50
2023-03-16T03:53:38.176Z,36.00
2023-03-16T03:54:38.191Z,36.20
2023-03-16T03:55:38.172Z,33.80
2023-03-16T03:56:38.159Z,42.50
2023-03-16T03:57:38.140Z,41.60
2023-03-16T03:58:38.302Z,36.20
2023-03-16T03:59:38.116Z,41.30
2023-03-16T04:00:38.129Z,31.80
2023-03-16T04:01:38.108Z,31.90
2023-03-16T04:02:38.250Z,35.50
2023-03-16T04:03:38.093Z,36.00
2023-03-16T04:04:38.107Z,35.30
2023-03-16T04:05:38.080Z,40.60
2023-03-16T04:06:38.082Z,40.20
2023-03-16T04:07:39.122Z,40.70
2023-03-16T04:08:38.072Z,31.60
2023-03-16T04:09:38.076Z,33.10
2023-03-16T04:10:38.078Z,50.10
2023-03-16T04:11:38.059Z,47.60
2023-03-16T04:12:38.064Z,45.60
2023-03-16T04:13:38.037Z,41.70
2023-03-16T04:14:38.029Z,41.80
2023-03-16T04:15:38.023Z,53.30
2023-03-16T04:16:38.096Z,64.80
2023-03-16T04:17:38.020Z,59.00
2023-03-16T04:18:38.522Z,64.20
2023-03-16T04:19:39.022Z,64.20
2023-03-16T04:20:38.014Z,61.50
2023-03-16T04:21:38.074Z,55.50
2023-03-16T04:22:38.001Z,58.50
2023-03-16T04:23:38.969Z,56.80
2023-03-16T04:24:38.023Z,56.60
2023-03-16T04:25:38.009Z,48.70
2023-03-16T04:26:38.044Z,49.00
2023-03-16T04:27:37.975Z,40.30
2023-03-16T04:28:37.949Z,36.70
2023-03-16T04:29:37.951Z,49.80
2023-03-16T04:30:38.046Z,46.30
2023-03-16T04:31:37.957Z,44.40
2023-03-16T04:32:37.923Z,48.10
2023-03-16T04:33:37.945Z,50.00
2023-03-16T04:34:37.935Z,45.80
2023-03-16T04:35:37.950Z,41.60
2023-03-16T04:36:37.925Z,39.70
2023-03-16T04:37:37.884Z,40.50
2023-03-16T04:38:37.923Z,62.20
2023-03-16T04:39:37.899Z,96.30
2023-03-16T04:40:37.879Z,44.30
2023-03-16T04:41:37.912Z,39.70
2023-03-16T04:42:37.854Z,36.50
2023-03-16T04:43:37.890Z,35.10
2023-03-16T04:44:37.871Z,39.30
2023-03-16T04:45:37.876Z,36.80
2023-03-16T04:46:37.897Z,37.10
2023-03-16T04:47:37.846Z,37.30
2023-03-16T04:48:38.122Z,44.60
2023-03-16T04:49:37.821Z,43.10
2023-03-16T04:50:37.828Z,43.50
2023-03-16T04:51:37.812Z,42.80
2023-03-16T04:52:37.810Z,41.60
2023-03-16T04:53:37.895Z,40.40
2023-03-16T04:54:37.798Z,43.70
2023-03-16T04:55:37.805Z,36.50
2023-03-16T04:56:38.318Z,41.70
2023-03-16T04:57:37.788Z,49.40
2023-03-16T04:58:37.809Z,54.80
2023-03-16T04:59:37.894Z,54.20
2023-03-16T05:00:37.815Z,54.30
2023-03-16T05:01:37.821Z,48.70
2023-03-16T05:02:37.753Z,45.20
2023-03-16T05:03:37.769Z,41.00
2023-03-16T05:04:37.782Z,41.50
2023-03-16T05:05:39.302Z,39.00
2023-03-16T05:06:37.743Z,40.50
2023-03-16T05:07:37.758Z,41.10
2023-03-16T05:08:37.748Z,40.20
2023-03-16T05:09:37.771Z,45.80
2023-03-16T05:10:37.750Z,45.20
2023-03-16T05:11:37.797Z,37.00
2023-03-16T05:12:37.770Z,37.00
2023-03-16T05:13:37.711Z,36.40
2023-03-16T05:14:37.704Z,39.00
2023-03-16T05:15:37.718Z,52.60
2023-03-16T05:16:37.711Z,55.60
2023-03-16T05:17:37.702Z,60.00
2023-03-16T05:18:37.685Z,58.50
2023-03-16T05:19:37.771Z,58.30
2023-03-16T05:20:37.655Z,57.30
2023-03-16T05:21:37.725Z,49.30
2023-03-16T05:22:37.645Z,41.20
2023-03-16T05:23:37.644Z,38.80
2023-03-16T05:24:37.637Z,45.10
2023-03-16T05:25:37.624Z,43.00
2023-03-16T05:26:37.662Z,44.00
2023-03-16T05:27:37.636Z,42.50
2023-03-16T05:28:37.641Z,51.40
2023-03-16T05:29:37.634Z,56.60
2023-03-16T05:30:37.604Z,52.30
2023-03-16T05:31:37.668Z,53.30
2023-03-16T05:32:37.632Z,50.30
2023-03-16T05:33:37.583Z,54.90
2023-03-16T05:34:37.578Z,55.80
2023-03-16T05:35:37.618Z,51.70
2023-03-16T05:36:37.585Z,55.90
2023-03-16T05:37:37.576Z,49.90
2023-03-16T05:38:37.581Z,47.00
2023-03-16T05:39:37.558Z,50.70
2023-03-16T05:40:37.541Z,48.50
2023-03-16T05:41:37.554Z,53.20
2023-03-16T05:42:37.516Z,55.80
2023-03-16T05:43:38.565Z,50.90
2023-03-16T05:44:37.563Z,45.60
2023-03-16T05:45:37.607Z,39.30
2023-03-16T05:46:37.600Z,35.90
2023-03-16T05:47:37.514Z,35.00
2023-03-16T05:48:37.509Z,38.90
2023-03-16T05:49:37.530Z,36.10
2023-03-16T05:50:37.509Z,39.40
2023-03-16T05:51:37.500Z,39.10
2023-03-16T05:52:37.516Z,38.60
2023-03-16T05:53:37.509Z,43.30
2023-03-16T05:54:37.487Z,46.10
2023-03-16T05:55:37.509Z,43.20
2023-03-16T05:56:37.840Z,43.20
2023-03-16T05:57:37.452Z,38.50
2023-03-16T05:58:37.650Z,33.60
2023-03-16T05:59:37.462Z,32.90
2023-03-16T06:00:38.497Z,30.10
2023-03-16T06:01:37.474Z,33.50
2023-03-16T06:02:37.489Z,30.60
2023-03-16T06:03:41.654Z,33.70
2023-03-16T06:04:37.417Z,33.20
2023-03-16T06:05:39.083Z,27.50
2023-03-16T06:06:37.708Z,25.60
2023-03-16T06:07:37.468Z,26.80
2023-03-16T06:08:37.413Z,33.00
2023-03-16T06:09:38.323Z,28.80
2023-03-16T06:10:37.373Z,25.70
2023-03-16T06:11:37.376Z,22.00
2023-03-16T06:12:37.369Z,20.30
2023-03-16T06:13:37.374Z,20.50
2023-03-16T06:14:37.384Z,18.90
2023-03-16T06:15:37.342Z,27.20
2023-03-16T06:16:37.396Z,26.00
2023-03-16T06:17:37.344Z,24.10
2023-03-16T06:18:37.365Z,23.80
2023-03-16T06:19:37.324Z,22.30
2023-03-16T06:20:37.319Z,22.40
2023-03-16T06:21:37.367Z,20.80
2023-03-16T06:22:37.322Z,20.10
2023-03-16T06:23:37.333Z,19.20
2023-03-16T06:24:37.310Z,18.80
2023-03-16T06:25:40.153Z,20.00
2023-03-16T06:26:37.330Z,20.20
2023-03-16T06:27:37.330Z,68.00
2023-03-16T06:28:37.289Z,131.00
2023-03-16T06:29:37.297Z,94.80
2023-03-16T06:30:37.274Z,229.10
2023-03-16T06:31:37.360Z,227.30
2023-03-16T06:32:37.299Z,232.70
2023-03-16T06:33:37.290Z,218.80
2023-03-16T06:34:38.348Z,219.40
2023-03-16T06:35:38.289Z,419.50
2023-03-16T06:36:37.239Z,348.70
2023-03-16T06:37:37.252Z,142.70
2023-03-16T06:38:37.218Z,150.90
2023-03-16T06:39:37.232Z,55.40
2023-03-16T06:40:37.221Z,82.80
2023-03-16T06:41:38.219Z,122.70
2023-03-16T06:42:37.191Z,78.70
2023-03-16T06:43:37.182Z,70.60
2023-03-16T06:44:37.235Z,63.90
2023-03-16T06:45:37.192Z,66.80
2023-03-16T06:46:37.193Z,59.10
2023-03-16T06:47:37.190Z,44.30
2023-03-16T06:48:37.166Z,42.50
2023-03-16T06:49:37.149Z,42.60
2023-03-16T06:50:37.154Z,34.60
2023-03-16T06:51:37.128Z,41.70
2023-03-16T06:52:37.127Z,44.90
2023-03-16T06:53:37.156Z,42.10
2023-03-16T06:54:37.117Z,35.60
2023-03-16T06:55:37.794Z,33.10
2023-03-16T06:56:37.109Z,40.50
2023-03-16T06:57:37.094Z,45.70
2023-03-16T06:58:37.086Z,32.70
2023-03-16T06:59:37.134Z,24.50
2023-03-16T07:00:37.073Z,16.70
2023-03-16T07:01:37.124Z,17.90
2023-03-16T07:02:37.102Z,17.80
2023-03-16T07:03:37.082Z,14.40
2023-03-16T07:04:37.191Z,17.00
2023-03-16T07:05:37.051Z,17.90
2023-03-16T07:06:37.108Z,16.00
2023-03-16T07:07:37.040Z,17.00
2023-03-16T07:08:37.031Z,22.30
2023-03-16T07:09:39.630Z,19.80
2023-03-16T07:10:38.052Z,17.60
2023-03-16T07:11:37.019Z,18.00
2023-03-16T07:12:37.004Z,15.70
2023-03-16T07:13:36.978Z,19.40
2023-03-16T07:14:37.805Z,15.70
2023-03-16T07:15:36.992Z,14.20
2023-03-16T07:16:37.019Z,17.20
2023-03-16T07:17:36.979Z,13.50
2023-03-16T07:18:36.952Z,12.50
2023-03-16T07:19:37.786Z,11.50
2023-03-16T07:20:36.999Z,14.50
2023-03-16T07:21:36.944Z,11.90
2023-03-16T07:22:36.948Z,13.70
2023-03-16T07:23:36.922Z,22.20
2023-03-16T07:24:36.910Z,12.60
2023-03-16T07:25:36.968Z,13.40
2023-03-16T07:26:36.936Z,12.30
2023-03-16T07:27:36.925Z,14.70
2023-03-16T07:28:36.904Z,11.00
2023-03-16T07:29:37.790Z,13.90
2023-03-16T07:30:36.909Z,11.40
2023-03-16T07:31:37.373Z,12.00
2023-03-16T07:32:36.916Z,14.80
2023-03-16T07:33:36.865Z,13.20
2023-03-16T07:34:36.868Z,12.60
2023-03-16T07:35:36.934Z,12.60
2023-03-16T07:36:36.852Z,14.50
2023-03-16T07:37:36.858Z,11.50
2023-03-16T07:38:36.891Z,11.30
2023-03-16T07:39:36.895Z,10.60
2023-03-16T07:40:36.809Z,11.90
2023-03-16T07:41:36.827Z,11.00
2023-03-16T07:42:36.853Z,12.50
2023-03-16T07:43:36.787Z,11.80
2023-03-16T07:44:36.789Z,10.10
2023-03-16T07:45:36.790Z,30.40
2023-03-16T07:46:36.814Z,28.70
2023-03-16T07:47:36.800Z,30.30
2023-03-16T07:48:36.812Z,49.50
2023-03-16T07:49:36.780Z,47.40
2023-03-16T07:50:36.799Z,40.90
2023-03-16T07:51:36.750Z,26.20
2023-03-16T07:52:37.607Z,27.00
2023-03-16T07:53:37.750Z,34.60
2023-03-16T07:54:36.735Z,21.70
2023-03-16T07:55:36.743Z,23.00
2023-03-16T07:56:48.227Z,16.00
2023-03-16T07:57:39.150Z,17.80
2023-03-16T07:58:36.724Z,17.10
2023-03-16T07:59:36.723Z,14.30
2023-03-16T08:00:36.741Z,19.00
2023-03-16T08:01:36.690Z,15.20
2023-03-16T08:02:36.996Z,15.90
2023-03-16T08:03:36.729Z,10.80
2023-03-16T08:04:36.698Z,11.50
2023-03-16T08:05:36.673Z,10.10
2023-03-16T08:06:36.647Z,7.30
2023-03-16T08:07:36.660Z,11.10
2023-03-16T08:08:36.661Z,11.50
2023-03-16T08:09:36.627Z,21.10
2023-03-16T08:10:36.653Z,25.50
2023-03-16T08:11:36.677Z,12.80
2023-03-16T08:12:36.669Z,11.20
2023-03-16T08:13:36.654Z,14.50
2023-03-16T08:14:36.623Z,10.80
2023-03-16T08:15:36.640Z,8.70
2023-03-16T08:16:36.597Z,11.10
2023-03-16T08:17:36.595Z,11.10
2023-03-16T08:18:36.588Z,6.90
2023-03-16T08:19:36.606Z,7.60
2023-03-16T08:20:36.727Z,6.90
2023-03-16T08:21:53.122Z,9.00
2023-03-16T08:22:38.562Z,6.70
2023-03-16T08:23:36.546Z,7.70
2023-03-16T08:24:36.584Z,7.20
2023-03-16T08:25:36.534Z,7.00
2023-03-16T08:26:38.693Z,5.40
2023-03-16T08:27:36.529Z,7.90
2023-03-16T08:28:36.568Z,8.90
2023-03-16T08:29:36.516Z,7.00
2023-03-16T08:30:36.556Z,11.30
2023-03-16T08:31:36.576Z,7.70
2023-03-16T08:32:36.682Z,8.00
2023-03-16T08:33:36.483Z,10.30
2023-03-16T08:34:36.533Z,9.10
2023-03-16T08:35:36.537Z,14.90
2023-03-16T08:36:36.490Z,12.70
2023-03-16T08:37:36.484Z,10.10
2023-03-16T08:38:36.464Z,18.90
2023-03-16T08:39:36.446Z,17.30
2023-03-16T08:40:36.465Z,12.50
2023-03-16T08:41:36.448Z,11.10
2023-03-16T08:42:36.467Z,11.20
2023-03-16T08:43:36.440Z,8.90
2023-03-16T08:44:36.421Z,12.50
2023-03-16T08:45:36.394Z,22.70
2023-03-16T08:46:36.424Z,9.60
2023-03-16T08:47:36.419Z,11.20
2023-03-16T08:48:36.442Z,9.10
2023-03-16T08:49:36.406Z,13.80
2023-03-16T08:50:36.391Z,11.80
2023-03-16T08:51:36.407Z,9.90
2023-03-16T08:52:36.420Z,11.20
2023-03-16T08:53:36.476Z,6.20
2023-03-16T08:54:36.349Z,11.30
2023-03-16T08:55:36.354Z,8.60
2023-03-16T08:56:36.415Z,5.60
2023-03-16T08:57:36.338Z,5.70
2023-03-16T08:58:36.324Z,7.20
2023-03-16T08:59:36.384Z,7.10
2023-03-16T09:00:36.315Z,29.50
2023-03-16T09:01:36.360Z,15.10
2023-03-16T09:02:36.339Z,10.20
2023-03-16T09:03:36.297Z,5.50
2023-03-16T09:04:36.333Z,9.40
2023-03-16T09:05:36.278Z,7.30
2023-03-16T09:06:36.273Z,5.20
2023-03-16T09:07:36.326Z,5.70
2023-03-16T09:08:36.252Z,5.90
2023-03-16T09:09:36.277Z,4.60
2023-03-16T09:10:36.261Z,8.80
2023-03-16T09:11:36.266Z,12.30
2023-03-16T09:12:36.277Z,6.60
2023-03-16T09:13:36.248Z,5.90
2023-03-16T09:14:36.231Z,6.40
2023-03-16T09:15:36.233Z,5.90
2023-03-16T09:16:36.285Z,4.80
2023-03-16T09:17:36.358Z,5.50
2023-03-16T09:18:36.235Z,4.00
2023-03-16T09:19:53.332Z,3.80
2023-03-16T09:20:39.046Z,4.20
2023-03-16T09:21:36.175Z,4.60
2023-03-16T09:22:36.164Z,7.00
2023-03-16T09:23:36.229Z,4.60
2023-03-16T09:24:36.139Z,5.80
2023-03-16T09:25:36.164Z,7.10
2023-03-16T09:26:36.256Z,6.80
2023-03-16T09:27:36.178Z,6.00
2023-03-16T09:28:36.134Z,6.30
2023-03-16T09:29:36.152Z,5.60
2023-03-16T09:30:36.182Z,9.00
2023-03-16T09:31:36.219Z,5.70
2023-03-16T09:32:36.161Z,7.80
2023-03-16T09:33:36.134Z,6.90
2023-03-16T09:34:36.134Z,7.10
2023-03-16T09:35:36.449Z,7.10
2023-03-16T09:36:36.092Z,7.00
2023-03-16T09:37:44.911Z,8.50
2023-03-16T09:38:37.063Z,12.80
2023-03-16T09:39:36.072Z,8.60
2023-03-16T09:40:36.248Z,9.70
2023-03-16T09:41:36.043Z,6.40
2023-03-16T09:42:36.018Z,4.50
2023-03-16T09:43:36.009Z,5.40
2023-03-16T09:44:36.038Z,4.60
2023-03-16T09:45:36.058Z,5.50
2023-03-16T09:46:36.269Z,4.70
2023-03-16T09:47:36.101Z,6.10
2023-03-16T09:48:35.984Z,12.80
2023-03-16T09:49:36.147Z,13.00
2023-03-16T09:50:47.809Z,6.60
2023-03-16T09:51:37.969Z,7.10
2023-03-16T09:52:36.098Z,8.20
2023-03-16T09:53:35.951Z,4.10
2023-03-16T09:54:35.964Z,3.50
2023-03-16T09:55:35.938Z,4.00
2023-03-16T09:56:35.924Z,5.10
2023-03-16T09:57:35.940Z,4.90
2023-03-16T09:58:35.936Z,4.20
2023-03-16T09:59:35.926Z,3.20
2023-03-16T10:00:35.979Z,2.30
2023-03-16T10:01:35.906Z,4.40
2023-03-16T10:02:35.914Z,4.90
2023-03-16T10:03:35.923Z,5.00
2023-03-16T10:04:35.902Z,4.90
2023-03-16T10:05:35.869Z,4.90
2023-03-16T10:06:35.860Z,3.70
2023-03-16T10:07:35.861Z,3.30
2023-03-16T10:08:35.852Z,3.30
2023-03-16T10:09:35.855Z,4.70
2023-03-16T10:10:35.863Z,3.10
2023-03-16T10:11:35.854Z,4.70
2023-03-16T10:12:35.875Z,5.00
2023-03-16T10:13:35.816Z,3.80
2023-03-16T10:14:35.859Z,4.60
2023-03-16T10:15:35.974Z,3.90
2023-03-16T10:16:35.889Z,4.10
2023-03-16T10:17:35.787Z,3.90
2023-03-16T10:18:35.793Z,3.00
2023-03-16T10:19:35.822Z,3.20
2023-03-16T10:20:35.776Z,4.50
2023-03-16T10:21:35.799Z,5.40
2023-03-16T10:22:35.785Z,2.80
2023-03-16T10:23:35.761Z,2.90
2023-03-16T10:24:35.813Z,3.50
2023-03-16T10:25:36.346Z,3.00
2023-03-16T10:26:35.777Z,2.80
2023-03-16T10:27:35.736Z,4.00
2023-03-16T10:28:35.749Z,3.60
2023-03-16T10:29:35.745Z,2.40
2023-03-16T10:30:35.730Z,2.50
2023-03-16T10:31:35.755Z,2.60
2023-03-16T10:32:35.756Z,2.80
2023-03-16T10:33:35.701Z,3.90
2023-03-16T10:34:35.699Z,4.70
2023-03-16T10:35:35.720Z,4.00
2023-03-16T10:36:35.707Z,6.10
2023-03-16T10:37:35.655Z,3.50
2023-03-16T10:38:35.649Z,4.00
2023-03-16T10:39:35.662Z,3.80
2023-03-16T10:40:35.649Z,2.80
2023-03-16T10:41:35.741Z,3.80
2023-03-16T10:42:35.662Z,3.00
2023-03-16T10:43:35.629Z,3.40
2023-03-16T10:44:35.608Z,4.80
2023-03-16T10:45:35.699Z,6.90
2023-03-16T10:46:35.746Z,2.50
2023-03-16T10:47:35.666Z,3.30
2023-03-16T10:48:35.625Z,7.90
2023-03-16T10:49:35.594Z,2.50
2023-03-16T10:50:35.631Z,2.50
2023-03-16T10:51:35.591Z,5.80
2023-03-16T10:52:35.584Z,5.30
2023-03-16T10:53:35.614Z,5.00
2023-03-16T10:54:35.569Z,3.00
2023-03-16T10:55:35.558Z,3.30
2023-03-16T10:56:35.557Z,4.50
2023-03-16T10:57:35.553Z,4.00
2023-03-16T10:58:35.546Z,4.70
2023-03-16T10:59:35.543Z,3.80
2023-03-16T11:00:35.529Z,12.10
2023-03-16T11:01:35.587Z,4.40
2023-03-16T11:02:35.539Z,5.20
2023-03-16T11:03:37.134Z,5.20
2023-03-16T11:04:36.565Z,3.20
2023-03-16T11:05:35.535Z,4.20
2023-03-16T11:06:35.500Z,3.40
2023-03-16T11:07:35.470Z,2.70
2023-03-16T11:08:35.491Z,4.20
2023-03-16T11:09:35.486Z,3.10
2023-03-16T11:10:40.535Z,3.10
2023-03-16T11:11:36.456Z,3.20
2023-03-16T11:12:35.471Z,2.90
2023-03-16T11:13:36.432Z,3.10
2023-03-16T11:14:35.476Z,3.60
2023-03-16T11:15:35.458Z,4.60
2023-03-16T11:16:35.512Z,3.20
2023-03-16T11:17:35.454Z,2.90
2023-03-16T11:18:35.419Z,2.70
2023-03-16T11:19:35.409Z,4.10
2023-03-16T11:20:35.401Z,3.30
2023-03-16T11:21:35.417Z,3.80
2023-03-16T11:22:35.423Z,2.50
2023-03-16T11:23:35.435Z,3.40
2023-03-16T11:24:35.378Z,3.30
2023-03-16T11:25:35.428Z,22.70
2023-03-16T11:26:35.406Z,4.00
2023-03-16T11:27:35.386Z,3.00
2023-03-16T11:28:35.399Z,3.30
2023-03-16T11:29:35.392Z,3.30
2023-03-16T11:30:35.370Z,2.80
2023-03-16T11:31:35.347Z,4.60
2023-03-16T11:32:35.339Z,3.10
2023-03-16T11:33:35.332Z,4.30
2023-03-16T11:34:35.323Z,2.60
2023-03-16T11:35:35.369Z,2.60
2023-03-16T11:36:35.700Z,3.90
2023-03-16T11:37:35.345Z,2.40
2023-03-16T11:38:35.288Z,3.30
2023-03-16T11:39:35.309Z,2.60
2023-03-16T11:40:35.264Z,5.70
2023-03-16T11:41:35.841Z,5.30
2023-03-16T11:42:35.300Z,2.70
2023-03-16T11:43:35.301Z,2.50
2023-03-16T11:44:35.249Z,4.70
2023-03-16T11:45:35.258Z,4.50
2023-03-16T11:46:35.268Z,3.60
2023-03-16T11:47:35.262Z,4.40
2023-03-16T11:48:35.234Z,4.80
2023-03-16T11:49:35.237Z,3.60
2023-03-16T11:50:35.204Z,4.20
2023-03-16T11:51:35.214Z,4.20
2023-03-16T11:52:35.214Z,3.40
2023-03-16T11:53:35.181Z,2.50
2023-03-16T11:54:35.180Z,3.50
2023-03-16T11:55:35.196Z,2.30
2023-03-16T11:56:35.179Z,3.80
2023-03-16T11:57:35.183Z,2.90
2023-03-16T11:58:35.169Z,2.60
2023-03-16T11:59:35.144Z,2.80
2023-03-16T12:00:35.145Z,3.00
2023-03-16T12:01:35.160Z,2.30
2023-03-16T12:02:35.319Z,2.40
2023-03-16T12:03:35.288Z,2.90
2023-03-16T12:04:35.155Z,3.80
2023-03-16T12:05:35.116Z,2.40
2023-03-16T12:06:35.105Z,3.30
2023-03-16T12:07:35.222Z,3.60
2023-03-16T12:08:35.100Z,3.40
2023-03-16T12:09:35.124Z,3.90
2023-03-16T12:10:35.062Z,3.70
2023-03-16T12:11:35.076Z,2.20
2023-03-16T12:12:35.105Z,2.60
2023-03-16T12:13:35.847Z,2.20
2023-03-16T12:14:35.043Z,3.20
2023-03-16T12:15:35.035Z,2.20
2023-03-16T12:16:48.240Z,3.10
2023-03-16T12:17:37.021Z,1.80
2023-03-16T12:18:35.005Z,2.50
2023-03-16T12:19:35.010Z,2.00
2023-03-16T12:20:34.991Z,1.80
2023-03-16T12:21:34.986Z,2.20
2023-03-16T12:22:34.970Z,4.30
2023-03-16T12:23:34.995Z,4.50
2023-03-16T12:24:34.958Z,2.60
2023-03-16T12:25:35.864Z,3.00
2023-03-16T12:26:34.953Z,2.00
2023-03-16T12:27:34.945Z,3.10
2023-03-16T12:28:34.960Z,1.60
2023-03-16T12:29:34.944Z,3.00
2023-03-16T12:30:34.932Z,1.60
2023-03-16T12:31:34.965Z,2.40
2023-03-16T12:32:34.977Z,2.10
2023-03-16T12:33:34.891Z,2.20
2023-03-16T12:34:34.913Z,2.30
2023-03-16T12:35:35.895Z,2.40
2023-03-16T12:36:34.862Z,1.40
2023-03-16T12:37:34.886Z,1.50
2023-03-16T12:38:34.891Z,1.70
2023-03-16T12:39:36.764Z,3.40
2023-03-16T12:40:35.866Z,1.60
2023-03-16T12:41:34.860Z,1.80
2023-03-16T12:42:34.867Z,2.10
2023-03-16T12:43:34.898Z,2.20
2023-03-16T12:44:34.814Z,2.30
2023-03-16T12:45:34.952Z,2.20
2023-03-16T12:46:34.848Z,1.90
2023-03-16T12:47:34.837Z,3.30
2023-03-16T12:48:34.800Z,2.40
2023-03-16T12:49:34.806Z,1.90
2023-03-16T12:50:34.788Z,2.00
2023-03-16T12:51:34.818Z,2.00
2023-03-16T12:52:34.784Z,1.90
2023-03-16T12:53:34.747Z,1.80
2023-03-16T12:54:34.758Z,2.10
2023-03-16T12:55:34.769Z,2.20
2023-03-16T12:56:34.779Z,1.70
2023-03-16T12:57:36.315Z,2.00
2023-03-16T12:58:34.816Z,1.80
2023-03-16T12:59:34.752Z,2.20
2023-03-16T13:00:34.729Z,2.10